Flight Track Log - Related Links

Times and Time Zones

All times are in EDT time to prevent confusion due to time zone crossing. See the SWA538 flight status page for this flight to view local times or setup timezone preferences in your user account.

Time Position Orientation Groundspeed Altitude Reporting Facility
EDT Latitude Longitude Course Direction KTS MPH feet Rate Location/Type
Tue 12:38:36 AM 33.6500 -117.8833 195° South 142 163 1,500  Level Southern California TRACON
Tue 12:40:01 AM 33.6056 -117.8978 195° South 142 163 3,100 1,479 Climbing Los Angeles Center
Tue 12:41:02 AM 33.5461 -117.9181 196° South 213 245 5,100 3,197 Climbing Los Angeles Center
Tue 12:42:03 AM 33.4794 -117.9661 211° Southwest 268 308 9,600 3,707 Climbing Los Angeles Center
Tue 12:43:05 AM 33.4078 -118.0178 211° Southwest 284 327 12,700 3,171 Climbing Los Angeles Center
Tue 12:44:06 AM 33.3369 -118.0969 223° Southwest 331 381 16,100 3,492 Climbing Los Angeles Center
Tue 12:45:07 AM 33.3453 -118.2108 275° West 345 397 19,800 3,610 Climbing Los Angeles Center
Tue 12:46:09 AM 33.3656 -118.3544 280° West 360 414 23,500 2,634 Climbing Los Angeles Center
Tue 12:47:10 AM 33.4183 -118.4717 298° West 408 470 25,200 2,066 Climbing Los Angeles Center
Tue 12:48:11 AM 33.5056 -118.5750 315° West 435 501 27,700 2,780 Climbing Los Angeles Center
Tue 12:49:13 AM 33.5911 -118.6758 316° Northwest 430 495 30,900 2,780 Climbing Los Angeles Center
Tue 12:50:14 AM 33.6744 -118.7744 315° West 419 482 33,400 2,361 Climbing Los Angeles Center
Tue 12:51:15 AM 33.7572 -118.8711 316° Northwest 413 475 35,700 2,098 Climbing Los Angeles Center
Tue 12:52:17 AM 33.8381 -118.9672 315° West 410 472 37,700 1,805 Climbing Los Angeles Center
Tue 12:53:18 AM 33.9178 -119.0619 315° West 404 465 39,400 1,122 Climbing Los Angeles Center
Tue 12:54:20 AM 33.9967 -119.1578 315° West 402 463 40,000 293 Climbing Los Angeles Center
Tue 12:55:21 AM 34.0797 -119.2569 315° West 415 478 40,000  Level Los Angeles Center
Tue 12:56:22 AM 34.1617 -119.3558 315° West 416 479 40,000  Level Los Angeles Center
Tue 12:57:23 AM 34.2283 -119.4342 316° Northwest 418 481 40,000  Level Los Angeles Center
Tue 12:58:25 AM 34.3417 -119.5722 315° West 414 476 40,000  Level Los Angeles Center
Tue 12:59:27 AM 34.4242 -119.6703 316° Northwest 414 476 40,000  Level Los Angeles Center
Tue 01:00:28 AM 34.5047 -119.7692 315° West 414 476 40,000  Level Los Angeles Center
Tue 01:01:30 AM 34.5903 -119.8625 318° Northwest 414 476 40,000  Level Los Angeles Center
Tue 01:02:31 AM 34.6811 -119.9583 319° Northwest 416 479 40,000  Level Los Angeles Center
Tue 01:03:33 AM 34.7678 -120.0533 318° Northwest 419 482 40,000  Level Los Angeles Center
Tue 01:04:34 AM 34.8514 -120.1433 319° Northwest 419 482 40,000  Level Los Angeles Center
Tue 01:05:35 AM 34.9367 -120.2386 318° Northwest 420 483 40,000  Level Los Angeles Center
Tue 01:06:37 AM 35.0397 -120.3511 318° Northwest 420 483 40,000  Level Los Angeles Center
Tue 01:07:38 AM 35.1078 -120.4261 318° Northwest 418 481 40,000  Level Los Angeles Center
Tue 01:08:40 AM 35.2103 -120.5414 317° Northwest 422 486 40,000  Level Los Angeles Center
Tue 01:09:41 AM 35.2942 -120.6369 317° Northwest 421 484 40,000  Level Los Angeles Center
Tue 01:10:43 AM 35.3675 -120.7094 321° Northwest 425 489 40,000  Level Los Angeles Center
Tue 01:11:44 AM 35.4822 -120.8114 324° Northwest 427 491 40,000  Level Los Angeles Center
Tue 01:12:46 AM 35.5783 -120.8961 324° Northwest 426 490 40,000  Level Los Angeles Center
Tue 01:13:47 AM 35.6886 -120.9956 324° Northwest 425 489 40,000  Level Los Angeles Center
Tue 01:14:49 AM 35.7844 -121.0822 324° Northwest 426 490 40,000  Level Los Angeles Center
Tue 01:15:50 AM 35.8794 -121.1672 324° Northwest 422 486 40,000  Level Los Angeles Center
Tue 01:17:01 AM 35.9917 -121.2717 323° Northwest 421 484 40,000 -182 Level Oakland Center
Tue 01:18:02 AM 36.0858 -121.3572 324° Northwest 416 479 39,600 -639 Descending Oakland Center
Tue 01:19:03 AM 36.1797 -121.4436 323° Northwest 415 478 38,700 -1,574 Descending Oakland Center
Tue 01:20:04 AM 36.2742 -121.5294 324° Northwest 420 483 36,400 -2,951 Descending Oakland Center
Tue 01:21:05 AM 36.3678 -121.6189 322° Northwest 423 487 32,700 -4,082 Descending Oakland Center
Tue 01:22:06 AM 36.4661 -121.7086 324° Northwest 435 501 28,100 -3,000 Descending Oakland Center
Tue 01:23:07 AM 36.5597 -121.7953 323° Northwest 408 470 26,600 -1,475 Descending Oakland Center
Tue 01:24:08 AM 36.6578 -121.8861 323° Northwest 367 422 25,100 -1,082 Descending Oakland Center
Tue 01:25:09 AM 36.7314 -121.9550 323° Northwest 332 382 24,400 -984 Descending Oakland Center
Tue 01:26:10 AM 36.7722 -122.0328 303° West 286 329 23,100 -1,377 Descending Oakland Center
Tue 01:27:11 AM 36.7144 -122.0864 217° Southwest 288 331 21,600 -1,475 Descending Oakland Center
Tue 01:28:12 AM 36.6350 -122.0625 166° South 293 337 20,100 -787 Descending Oakland Center
Tue 01:29:13 AM 36.6144 -121.9697 105° East 319 367 20,000 -49 Descending Oakland Center
Tue 01:30:14 AM 36.6897 -121.9536 10° North 286 329 20,000  Level Oakland Center
Tue 01:31:15 AM 36.7683 -121.9783 346° North 286 329 20,000  Level Oakland Center
Tue 01:32:16 AM 36.7714 -122.0642 273° West 273 314 20,000  Level Oakland Center
Tue 01:33:17 AM 36.7003 -122.0806 190° South 278 320 20,000  Level Oakland Center
Tue 01:34:18 AM 36.6236 -122.0553 165° South 286 329 20,000  Level Oakland Center
Tue 01:35:18 AM 36.6253 -121.9572 89° East 321 369 20,000  Level Oakland Center
Tue 01:36:19 AM 36.7047 -121.9550 North 287 330 20,000  Level Oakland Center
Tue 01:37:20 AM 36.7778 -122.0142 327° Northwest 290 334 20,000  Level Oakland Center
Tue 01:38:21 AM 36.7328 -122.0744 227° Southwest 282 325 20,000  Level Oakland Center
Tue 01:39:22 AM 36.6547 -122.0547 169° South 287 330 20,000  Level Oakland Center
Tue 01:40:23 AM 36.6272 -121.9717 112° Southeast 304 350 20,000  Level Oakland Center
Tue 01:41:24 AM 36.7044 -121.9567 North 290 334 20,000  Level Oakland Center
Tue 01:42:25 AM 36.7733 -121.9953 336° Northwest 280 322 20,000  Level Oakland Center
Tue 01:43:26 AM 36.7411 -122.0683 241° Southwest 282 325 20,000  Level Oakland Center
Tue 01:44:27 AM 36.6644 -122.0508 170° South 283 326 20,000  Level Oakland Center
Tue 01:45:28 AM 36.5861 -122.0303 168° South 287 330 20,000  Level Oakland Center
Tue 01:46:29 AM 36.5306 -121.9675 138° Southeast 306 352 20,000 -50 Level Oakland Center
Tue 01:47:29 AM 36.5931 -121.9250 29° Northeast 296 341 19,900  Descending Oakland Center
Tue 01:48:30 AM 36.6706 -121.9503 345° North 284 327 20,000 49 Climbing Oakland Center
Tue 01:49:31 AM 36.7506 -121.9675 350° North 288 331 20,000  Level Oakland Center
Tue 01:50:32 AM 36.7597 -122.0583 277° West 273 314 20,000  Level Oakland Center
Tue 01:51:33 AM 36.6828 -122.0575 180° South 288 331 20,000  Level Oakland Center
Tue 01:52:34 AM 36.6050 -122.0347 167° South 288 331 20,000  Level Oakland Center
Tue 01:53:35 AM 36.5331 -121.9975 157° South 290 334 20,000  Level Oakland Center
Tue 01:54:35 AM 36.5719 -121.9139 60° Northeast 318 366 20,000  Level Oakland Center
Tue 01:55:09 AM 36.6333 -121.9333 346° North 331 381 20,000  Level Northern Cal TRACON
Tue 01:56:10 AM 36.7333 -121.9667 345° North 345 397 20,000 -1,041 Level Northern Cal TRACON
Tue 01:57:10 AM 36.8167 -121.9833 351° North 332 382 17,900 -1,900 Descending Northern Cal TRACON
Tue 01:58:10 AM 36.9000 -122.0000 351° North 329 379 16,200 -1,700 Descending Northern Cal TRACON
Tue 01:59:10 AM 36.9833 -122.0333 342° North 326 375 14,500 -1,850 Descending Northern Cal TRACON
Tue 02:00:10 AM 37.0833 -122.0500 352° North 314 361 12,500 -2,067 Descending Northern Cal TRACON
Tue 02:00:40 AM 37.1092 -122.0600 343° North 314 361 11,400 -1,385 Descending Oakland Center
Tue 02:01:41 AM 37.1667 -122.1181 321° Northwest 295 339 10,400 -885 Descending Oakland Center
Tue 02:02:42 AM 37.2000 -122.1894 300° West 251 289 9,600 -1,041 Descending Oakland Center
Tue 02:03:42 AM 37.2322 -122.2619 299° West 239 275 8,300 -843 Descending Oakland Center
Tue 02:04:43 AM 37.2642 -122.3342 299° West 237 273 7,900 -197 Descending Oakland Center
Tue 02:05:44 AM 37.2950 -122.4058 298° West 235 270 7,900  Level Oakland Center
Tue 02:06:45 AM 37.3311 -122.4914 298° West 232 267 7,900  Level Oakland Center
Tue 02:07:45 AM 37.2800 -122.5075 194° South 243 280 7,900 -248 Level Oakland Center
Tue 02:08:46 AM 37.2356 -122.4486 133° Southeast 247 284 7,400 -492 Descending Oakland Center
Tue 02:09:47 AM 37.2433 -122.3592 84° East 254 292 6,900 -248 Descending Oakland Center
Tue 02:10:47 AM 37.2775 -122.2950 56° Northeast 246 283 6,900  Level Oakland Center
Tue 02:11:48 AM 37.3411 -122.3244 340° North 242 278 6,900  Level Oakland Center
Tue 02:12:49 AM 37.4036 -122.3536 340° North 239 275 6,900  Level Oakland Center
Tue 02:13:50 AM 37.4622 -122.3492 North 241 277 6,900  Level Oakland Center
Tue 02:14:50 AM 37.4289 -122.2892 125° Southeast 249 287 6,900  Level Oakland Center
Tue 02:15:51 AM 37.3714 -122.2483 151° Southeast 241 277 6,900 -148 Level Oakland Center
Tue 02:16:52 AM 37.3103 -122.2442 177° South 240 276 6,600 -496 Descending Oakland Center
Tue 02:17:52 AM 37.2975 -122.1764 103° East 251 289 5,900 -347 Descending Oakland Center
Tue 02:18:53 AM 37.3489 -122.1233 39° Northeast 242 278 5,900 -98 Level Oakland Center
Tue 02:19:54 AM 37.4075 -122.0839 28° Northeast 239 275 5,700 -443 Descending Oakland Center
Tue 02:20:55 AM 37.4531 -122.0497 31° Northeast 200 230 5,000 -397 Descending Oakland Center
Tue 02:21:55 AM 37.5108 -122.0569 354° North 181 208 4,900 -496 Descending Oakland Center
Tue 02:22:56 AM 37.5100 -122.1092 269° West 160 184 4,000 -934 Descending Oakland Center
Tue 02:23:57 AM 37.5244 -122.1547 292° West 147 169 3,000 -992 Descending Oakland Center
Tue 02:24:57 AM 37.5431 -122.1953 300° West 141 162 2,000 -645 Descending Oakland Center
Tue 02:25:58 AM 37.5583 -122.2306 299° West 129 148 1,700 -197 Descending Oakland Center
Tue 02:26:59 AM 37.5725 -122.2642 298° West 117 135 1,600 -397 Descending Oakland Center
Tue 02:27:59 AM 37.5869 -122.2978 298° West 112 129 900 -645 Descending Oakland Center
Tue 02:29:00 AM 37.6008 -122.3319 297° West 110 127 300 9,393 Descending Oakland Center
Tue 02:30:01 AM 37.6175 -122.3689 300° West 111 128 20,000 19,377 Climbing Oakland Center

Login

Don't have an account? Register now (free) for customized features, flight alerts, and more!